createdAt,value
2023-04-18T00:00:57.128Z,8.27
2023-04-18T00:06:01.568Z,6.97
2023-04-18T00:08:33.141Z,7.68
2023-04-18T00:11:03.953Z,7.13
2023-04-18T00:13:35.635Z,7.88
2023-04-18T00:16:06.380Z,7.75
2023-04-18T00:18:40.405Z,7.60
2023-04-18T00:21:14.036Z,7.70
2023-04-18T00:23:46.851Z,7.03
2023-04-18T00:26:20.060Z,6.75
2023-04-18T00:28:52.698Z,7.05
2023-04-18T00:31:25.685Z,7.10
2023-04-18T00:34:00.230Z,6.30
2023-04-18T00:36:30.843Z,6.95
2023-04-18T00:39:01.774Z,6.68
2023-04-18T00:41:34.120Z,6.30
2023-04-18T00:44:05.661Z,6.90
2023-04-18T00:46:36.322Z,7.25
2023-04-18T00:49:10.473Z,7.32
2023-04-18T00:51:44.455Z,6.28
2023-04-18T00:54:18.069Z,6.72
2023-04-18T00:56:51.028Z,6.35
2023-04-18T01:01:53.978Z,7.38
2023-04-18T01:04:28.663Z,6.78
2023-04-18T01:07:00.432Z,6.13
2023-04-18T01:09:36.452Z,6.93
2023-04-18T01:12:09.758Z,7.15
2023-04-18T01:14:46.373Z,7.25
2023-04-18T01:17:17.960Z,7.05
2023-04-18T01:19:52.676Z,6.75
2023-04-18T01:22:25.198Z,6.93
2023-04-18T01:33:37.118Z,6.75
2023-04-18T01:36:10.688Z,7.10
2023-04-18T01:41:42.296Z,7.40
2023-04-18T01:44:22.847Z,7.22
2023-04-18T01:46:56.711Z,6.97
2023-04-18T01:49:30.541Z,6.35
2023-04-18T01:52:05.538Z,6.82
2023-04-18T01:54:38.537Z,7.15
2023-04-18T01:57:14.745Z,6.47
2023-04-18T01:59:50.238Z,7.18
2023-04-18T02:02:24.849Z,7.35
2023-04-18T02:04:59.732Z,6.57
2023-04-18T02:07:31.037Z,7.15
2023-04-18T02:10:02.048Z,7.18
2023-04-18T02:12:36.585Z,6.82
2023-04-18T02:15:10.369Z,6.90
2023-04-18T02:17:42.210Z,8.50
2023-04-18T02:20:15.424Z,7.25
2023-04-18T02:22:47.660Z,7.22
2023-04-18T02:25:19.439Z,7.05
2023-04-18T02:27:55.217Z,7.22
2023-04-18T02:30:27.535Z,7.88
2023-04-18T02:33:01.342Z,7.90
2023-04-18T02:35:34.714Z,8.48
2023-04-18T02:38:08.268Z,7.53
2023-04-18T02:40:39.334Z,6.60
2023-04-18T02:43:14.023Z,6.15
2023-04-18T02:45:48.636Z,6.90
2023-04-18T02:48:21.699Z,6.30
2023-04-18T02:50:55.393Z,6.80
2023-04-18T02:53:26.574Z,5.72
2023-04-18T02:56:01.156Z,6.32
2023-04-18T02:58:57.119Z,6.70
2023-04-18T03:01:59.891Z,7.35
2023-04-18T03:04:38.908Z,5.70
2023-04-18T03:07:13.065Z,6.28
2023-04-18T03:09:47.696Z,6.32
2023-04-18T03:12:30.235Z,6.82
2023-04-18T03:15:03.861Z,6.57
2023-04-18T03:17:35.783Z,6.57
2023-04-18T03:20:13.145Z,7.07
2023-04-18T03:22:47.064Z,7.35
2023-04-18T03:25:22.772Z,6.80
2023-04-18T03:27:57.069Z,6.47
2023-04-18T03:30:33.130Z,6.95
2023-04-18T03:33:06.264Z,7.30
2023-04-18T03:35:39.249Z,7.18
2023-04-18T03:38:11.520Z,6.28
2023-04-18T03:40:45.047Z,5.53
2023-04-18T03:43:23.613Z,5.63
2023-04-18T03:45:58.844Z,5.30
2023-04-18T03:48:36.433Z,6.22
2023-04-18T03:51:12.709Z,6.32
2023-04-18T03:53:45.554Z,6.80
2023-04-18T03:56:16.205Z,6.38
2023-04-18T03:59:05.993Z,5.57
2023-04-18T04:01:40.921Z,5.93
2023-04-18T04:04:15.938Z,5.57
2023-04-18T04:06:47.032Z,4.85
2023-04-18T04:09:20.791Z,5.22
2023-04-18T04:11:54.029Z,5.45
2023-04-18T04:14:25.189Z,6.13
2023-04-18T04:17:00.748Z,5.25
2023-04-18T04:19:32.741Z,5.82
2023-04-18T04:22:14.052Z,5.05
2023-04-18T04:24:47.233Z,5.85
2023-04-18T04:27:22.147Z,5.35
2023-04-18T04:29:54.383Z,6.07
2023-04-18T04:32:28.892Z,5.43
2023-04-18T04:34:59.967Z,5.70
2023-04-18T04:37:34.144Z,5.70
2023-04-18T04:40:16.048Z,6.13
2023-04-18T04:42:54.611Z,5.88
2023-04-18T04:45:35.544Z,5.53
2023-04-18T04:48:10.215Z,6.43
2023-04-18T04:50:42.674Z,5.72
2023-04-18T04:53:15.413Z,6.55
2023-04-18T04:55:46.635Z,6.70
2023-04-18T04:58:17.987Z,7.20
2023-04-18T05:01:08.952Z,6.18
2023-04-18T05:28:05.280Z,6.22
2023-04-18T05:30:40.107Z,6.47
2023-04-18T05:33:12.778Z,6.28
2023-04-18T05:35:47.552Z,6.25
2023-04-18T05:38:19.852Z,6.03
2023-04-18T05:40:51.788Z,5.85
2023-04-18T05:43:24.488Z,6.00
2023-04-18T05:45:59.443Z,5.32
2023-04-18T05:48:32.683Z,5.93
2023-04-18T05:51:05.352Z,6.50
2023-04-18T05:53:40.409Z,5.88
2023-04-18T05:56:14.086Z,5.50
2023-04-18T05:58:45.512Z,5.65
2023-04-18T06:01:21.869Z,5.57
2023-04-18T06:03:56.261Z,5.72
2023-04-18T06:06:28.356Z,5.95
2023-04-18T06:09:01.198Z,5.07
2023-04-18T06:11:34.305Z,5.47
2023-04-18T06:14:06.673Z,5.35
2023-04-18T06:16:42.771Z,5.50
2023-04-18T06:19:14.262Z,5.93
2023-04-18T06:21:46.880Z,6.13
2023-04-18T06:24:18.772Z,5.60
2023-04-18T06:26:51.436Z,6.88
2023-04-18T06:29:27.574Z,6.30
2023-04-18T06:32:04.642Z,6.65
2023-04-18T06:34:39.295Z,6.18
2023-04-18T06:37:11.152Z,6.20
2023-04-18T06:39:42.521Z,5.88
2023-04-18T06:42:15.987Z,5.57
2023-04-18T06:44:51.929Z,5.72
2023-04-18T06:47:27.667Z,5.88
2023-04-18T06:50:00.142Z,5.85
2023-04-18T06:52:31.188Z,5.00
2023-04-18T06:55:02.516Z,5.47
2023-04-18T06:57:33.328Z,4.57
2023-04-18T07:00:04.804Z,4.20
2023-04-18T07:02:39.935Z,4.40
2023-04-18T07:05:12.233Z,4.38
2023-04-18T07:07:44.593Z,5.05
2023-04-18T07:10:16.152Z,4.07
2023-04-18T07:12:49.707Z,4.90
2023-04-18T07:15:22.115Z,4.55
2023-04-18T07:17:56.248Z,4.65
2023-04-18T07:20:27.326Z,5.28
2023-04-18T07:22:58.299Z,6.13
2023-04-18T07:25:29.650Z,5.57
2023-04-18T07:28:01.100Z,5.63
2023-04-18T07:30:38.405Z,5.35
2023-04-18T07:33:14.387Z,5.72
2023-04-18T07:35:47.509Z,5.25
2023-04-18T07:38:20.678Z,5.22
2023-04-18T07:41:03.737Z,4.93
2023-04-18T07:43:36.384Z,4.78
2023-04-18T07:46:09.266Z,5.20
2023-04-18T07:48:45.347Z,5.28
2023-04-18T07:51:19.164Z,5.40
2023-04-18T07:53:51.679Z,4.88
2023-04-18T07:56:23.620Z,4.57
2023-04-18T07:59:02.468Z,3.85
2023-04-18T08:01:34.292Z,3.45
2023-04-18T08:04:10.235Z,2.88
2023-04-18T08:06:44.220Z,2.85
2023-04-18T08:09:15.679Z,3.42
2023-04-18T08:11:47.736Z,2.97
2023-04-18T08:14:18.735Z,3.00
2023-04-18T08:16:50.481Z,2.80
2023-04-18T08:19:25.692Z,3.17
2023-04-18T08:21:57.021Z,2.97
2023-04-18T08:24:31.002Z,3.00
2023-04-18T08:27:02.337Z,2.97
2023-04-18T08:29:33.196Z,3.42
2023-04-18T08:32:04.007Z,3.50
2023-04-18T08:34:40.295Z,3.40
2023-04-18T08:37:11.419Z,3.17
2023-04-18T08:39:42.342Z,3.22
2023-04-18T08:42:14.150Z,3.05
2023-04-18T08:44:46.206Z,3.83
2023-04-18T08:47:17.242Z,3.28
2023-04-18T08:49:52.694Z,3.17
2023-04-18T08:52:29.393Z,3.40
2023-04-18T08:55:04.430Z,2.97
2023-04-18T08:57:36.175Z,2.95
2023-04-18T09:00:12.281Z,3.20
2023-04-18T09:02:47.529Z,3.58
2023-04-18T09:05:25.433Z,3.13
2023-04-18T09:07:57.839Z,3.13
2023-04-18T09:10:31.940Z,6.70
2023-04-18T09:13:04.683Z,3.63
2023-04-18T09:15:39.044Z,9.93
2023-04-18T09:18:16.611Z,8.73
2023-04-18T09:20:50.620Z,5.80
2023-04-18T09:23:28.181Z,4.30
2023-04-18T09:25:59.770Z,4.88
2023-04-18T09:28:31.770Z,4.82
2023-04-18T09:31:12.347Z,4.63
2023-04-18T09:33:45.164Z,4.88
2023-04-18T09:36:27.614Z,5.45
2023-04-18T09:38:59.757Z,6.32
2023-04-18T09:41:30.993Z,5.95
2023-04-18T09:44:15.932Z,4.00
2023-04-18T09:46:47.662Z,3.38
2023-04-18T09:49:20.595Z,3.85
2023-04-18T09:51:57.017Z,4.83
2023-04-18T09:54:29.903Z,3.13
2023-04-18T09:57:02.052Z,3.40
2023-04-18T09:59:45.123Z,3.15
2023-04-18T10:02:18.861Z,4.07
2023-04-18T10:04:51.290Z,3.65
2023-04-18T10:20:50.215Z,3.15
2023-04-18T10:23:38.519Z,3.40
2023-04-18T10:26:11.908Z,3.50
2023-04-18T10:29:04.230Z,3.33
2023-04-18T10:31:56.447Z,3.40
2023-04-18T10:34:28.329Z,3.95
2023-04-18T10:37:13.054Z,3.50
2023-04-18T10:40:03.128Z,3.63
2023-04-18T10:43:02.728Z,3.65
2023-04-18T10:45:36.689Z,3.65
2023-04-18T10:48:32.922Z,3.63
2023-04-18T10:51:17.002Z,3.25
2023-04-18T10:53:57.230Z,3.50
2023-04-18T10:56:29.254Z,3.15
2023-04-18T10:59:04.377Z,3.58
2023-04-18T11:01:35.697Z,3.20
2023-04-18T11:04:15.701Z,3.20
2023-04-18T11:06:53.418Z,2.78
2023-04-18T11:09:26.474Z,3.20
2023-04-18T11:12:12.605Z,2.42
2023-04-18T11:14:43.480Z,2.70
2023-04-18T11:17:24.257Z,2.95
2023-04-18T11:19:54.720Z,2.00
2023-04-18T11:22:24.874Z,2.60
2023-04-18T11:25:01.142Z,2.63
2023-04-18T11:27:32.869Z,2.88
2023-04-18T11:30:02.957Z,2.05
2023-04-18T11:32:33.196Z,1.63
2023-04-18T11:35:03.508Z,1.90
2023-04-18T11:37:33.661Z,1.67
2023-04-18T11:40:07.799Z,2.08
2023-04-18T11:42:39.208Z,1.73
2023-04-18T11:45:14.513Z,2.10
2023-04-18T11:47:46.555Z,2.10
2023-04-18T11:50:16.915Z,2.22
2023-04-18T11:52:53.411Z,2.42
2023-04-18T11:55:27.808Z,2.08
2023-04-18T11:57:59.090Z,2.30
2023-04-18T12:00:42.089Z,1.70
2023-04-18T12:03:20.407Z,1.80
2023-04-18T12:05:51.428Z,1.90
2023-04-18T12:08:23.217Z,1.65
2023-04-18T12:10:57.396Z,2.33
2023-04-18T12:13:28.980Z,2.30
2023-04-18T12:15:59.210Z,2.58
2023-04-18T12:18:30.110Z,2.13
2023-04-18T12:21:02.232Z,1.77
2023-04-18T12:23:34.036Z,1.92
2023-04-18T12:26:09.163Z,2.13
2023-04-18T12:28:39.289Z,1.50
2023-04-18T12:31:09.660Z,1.73
2023-04-18T12:33:39.836Z,1.73
2023-04-18T12:36:11.374Z,1.83
2023-04-18T12:38:41.497Z,1.90
2023-04-18T12:41:14.184Z,1.88
2023-04-18T12:43:44.319Z,2.07
2023-04-18T12:46:14.484Z,2.22
2023-04-18T12:48:44.588Z,2.50
2023-04-18T12:51:14.712Z,2.20
2023-04-18T12:53:44.826Z,3.00
2023-04-18T12:56:18.435Z,3.20
2023-04-18T12:58:48.617Z,2.00
2023-04-18T13:01:18.845Z,2.92
2023-04-18T13:03:59.890Z,3.10
2023-04-18T13:06:38.879Z,2.35
2023-04-18T13:09:09.491Z,5.07
2023-04-18T13:11:42.213Z,2.05
2023-04-18T13:14:12.514Z,1.85
2023-04-18T13:16:44.036Z,1.70
2023-04-18T13:19:14.426Z,1.92
2023-04-18T13:21:44.624Z,1.60
2023-04-18T13:24:14.782Z,1.80
2023-04-18T13:26:47.521Z,2.13
2023-04-18T13:29:17.626Z,1.85
2023-04-18T13:31:47.747Z,2.00
2023-04-18T13:34:17.922Z,1.85
2023-04-18T13:36:48.189Z,1.98
2023-04-18T13:39:19.009Z,2.13
2023-04-18T13:41:51.809Z,1.85
2023-04-18T13:44:21.942Z,1.55
2023-04-18T13:46:52.039Z,1.45
2023-04-18T13:49:22.136Z,1.95
2023-04-18T13:51:53.675Z,1.48
2023-04-18T13:54:23.782Z,1.38
2023-04-18T13:56:57.356Z,1.98
2023-04-18T13:59:27.537Z,2.20
2023-04-18T14:01:58.323Z,1.67
2023-04-18T14:04:28.912Z,1.60
2023-04-18T14:06:59.296Z,1.35
2023-04-18T14:09:29.924Z,1.50
2023-04-18T14:12:02.704Z,1.30
2023-04-18T14:14:32.947Z,1.88
2023-04-18T14:17:03.084Z,2.25
2023-04-18T14:19:33.350Z,2.05
2023-04-18T14:22:03.539Z,1.65
2023-04-18T14:24:33.714Z,1.48
2023-04-18T14:27:06.546Z,1.73
2023-04-18T14:29:36.750Z,1.42
2023-04-18T14:32:07.333Z,1.60
2023-04-18T14:34:38.847Z,1.42
2023-04-18T14:37:09.806Z,1.77
2023-04-18T14:39:40.289Z,1.67
2023-04-18T14:42:13.177Z,2.53
2023-04-18T14:44:43.818Z,1.88
2023-04-18T14:47:13.979Z,2.22
2023-04-18T14:49:44.241Z,1.85
2023-04-18T14:52:14.426Z,1.55
2023-04-18T14:54:44.475Z,2.00
2023-04-18T14:57:17.210Z,1.65
2023-04-18T14:59:47.370Z,2.43
2023-04-18T15:02:17.696Z,1.73
2023-04-18T15:04:48.008Z,1.00
2023-04-18T15:07:18.379Z,1.70
2023-04-18T15:09:48.573Z,1.60
2023-04-18T15:12:21.491Z,1.92
2023-04-18T15:14:51.661Z,2.20
2023-04-18T15:17:22.122Z,2.33
2023-04-18T15:19:52.320Z,2.30
2023-04-18T15:22:23.081Z,1.85
2023-04-18T15:24:53.342Z,1.98
2023-04-18T15:27:26.069Z,2.42
2023-04-18T15:29:56.526Z,2.25
2023-04-18T15:32:26.841Z,2.33
2023-04-18T15:34:57.037Z,2.08
2023-04-18T15:37:28.104Z,1.88
2023-04-18T15:39:58.230Z,1.75
2023-04-18T15:42:31.065Z,1.83
2023-04-18T15:45:01.323Z,2.13
2023-04-18T15:47:31.905Z,2.17
2023-04-18T15:50:03.641Z,2.05
2023-04-18T15:52:33.787Z,2.40
2023-04-18T15:55:05.084Z,1.73
2023-04-18T15:57:37.935Z,1.95
2023-04-18T16:00:11.947Z,2.15
2023-04-18T16:02:42.184Z,2.00
2023-04-18T16:05:12.844Z,2.33
2023-04-18T16:07:43.358Z,2.15
2023-04-18T16:10:15.475Z,2.97
2023-04-18T16:12:48.420Z,1.90
2023-04-18T16:15:18.875Z,2.50
2023-04-18T16:17:49.219Z,2.20
2023-04-18T16:20:20.514Z,2.70
2023-04-18T16:22:50.657Z,2.13
2023-04-18T16:25:20.799Z,2.13
2023-04-18T16:27:53.682Z,2.38
2023-04-18T16:30:24.346Z,2.58
2023-04-18T16:32:54.617Z,2.70
2023-04-18T16:35:25.059Z,2.92
2023-04-18T16:37:55.152Z,2.40
2023-04-18T16:40:30.609Z,3.00
2023-04-18T16:43:03.779Z,3.45
2023-04-18T16:45:34.100Z,3.05
2023-04-18T16:48:04.412Z,2.67
2023-04-18T16:50:34.579Z,2.85
2023-04-18T16:53:04.798Z,2.33
2023-04-18T16:55:34.963Z,2.97
2023-04-18T16:58:07.749Z,2.55
2023-04-18T17:00:39.889Z,5.40
2023-04-18T17:03:10.318Z,4.90
2023-04-18T17:05:40.821Z,3.10
2023-04-18T17:08:11.093Z,3.58
2023-04-18T17:10:41.331Z,3.13
2023-04-18T17:13:14.225Z,3.25
2023-04-18T17:15:44.584Z,3.05
2023-04-18T17:18:14.865Z,2.50
2023-04-18T17:20:47.613Z,3.40
2023-04-18T17:23:17.860Z,3.00
2023-04-18T17:25:48.048Z,3.08
2023-04-18T17:28:21.422Z,3.42
2023-04-18T17:30:52.182Z,3.00
2023-04-18T17:33:22.625Z,3.10
2023-04-18T17:35:52.821Z,3.08
2023-04-18T17:38:23.007Z,3.70
2023-04-18T17:41:02.804Z,3.75
2023-04-18T17:43:35.554Z,3.10
2023-04-18T17:46:05.789Z,4.07
2023-04-18T17:48:36.064Z,3.80
2023-04-18T17:51:06.467Z,3.90
2023-04-18T17:53:39.449Z,4.15
2023-04-18T17:56:09.716Z,4.07
2023-04-18T17:58:42.552Z,4.45
2023-04-18T18:01:19.085Z,4.70
2023-04-18T18:03:50.047Z,5.20
2023-04-18T18:06:20.475Z,4.13
2023-04-18T18:08:50.766Z,4.05
2023-04-18T18:11:21.672Z,4.70
2023-04-18T18:13:55.819Z,5.80
2023-04-18T18:16:26.429Z,9.45
2023-04-18T18:18:56.668Z,29.27
2023-04-18T18:21:27.421Z,39.10
2023-04-18T18:23:57.655Z,33.00
2023-04-18T18:26:29.591Z,32.78
2023-04-18T18:29:08.957Z,33.28
2023-04-18T18:31:39.257Z,25.25
2023-04-18T18:34:09.595Z,19.48
2023-04-18T18:36:40.393Z,17.70
2023-04-18T18:39:11.191Z,14.80
2023-04-18T18:41:41.703Z,12.32
2023-04-18T18:44:15.008Z,11.60
2023-04-18T18:46:45.293Z,10.65
2023-04-18T18:49:15.663Z,10.95
2023-04-18T18:51:46.137Z,12.63
2023-04-18T18:54:16.338Z,12.73
2023-04-18T18:56:46.885Z,7.32
2023-04-18T18:59:20.854Z,8.30
2023-04-18T19:01:51.089Z,8.30
2023-04-18T19:04:21.339Z,18.65
2023-04-18T19:06:51.712Z,17.90
2023-04-18T19:09:21.942Z,33.80
2023-04-18T19:11:52.118Z,29.67
2023-04-18T19:14:24.964Z,14.90
2023-04-18T19:16:56.178Z,7.50
2023-04-18T19:19:26.397Z,4.95
2023-04-18T19:22:01.305Z,4.90
2023-04-18T19:24:32.150Z,5.72
2023-04-18T19:27:03.097Z,6.45
2023-04-18T19:29:36.151Z,7.50
2023-04-18T19:32:06.578Z,6.75
2023-04-18T19:34:36.757Z,6.75
2023-04-18T19:37:07.528Z,6.22
2023-04-18T19:39:37.658Z,5.13
2023-04-18T19:42:08.701Z,5.63
2023-04-18T19:44:41.571Z,5.70
2023-04-18T19:47:11.789Z,6.57
2023-04-18T19:49:42.279Z,5.88
2023-04-18T19:52:12.421Z,7.93
2023-04-18T19:54:42.604Z,9.23
2023-04-18T19:57:12.873Z,8.13
2023-04-18T19:59:45.763Z,7.63
2023-04-18T20:02:15.902Z,8.07
2023-04-18T20:04:47.994Z,10.45
2023-04-18T20:07:18.395Z,8.13
2023-04-18T20:09:48.577Z,8.35
2023-04-18T20:12:18.751Z,8.40
2023-04-18T20:14:51.580Z,5.82
2023-04-18T20:17:23.979Z,6.33
2023-04-18T20:19:57.343Z,6.50
2023-04-18T20:22:27.919Z,7.03
2023-04-18T20:24:59.176Z,6.32
2023-04-18T20:27:29.300Z,5.95
2023-04-18T20:30:02.053Z,7.00
2023-04-18T20:32:32.381Z,7.90
2023-04-18T20:35:03.010Z,7.80
2023-04-18T20:37:37.025Z,7.55
2023-04-18T20:40:11.369Z,7.18
2023-04-18T20:42:41.680Z,18.38
2023-04-18T20:45:15.073Z,13.70
2023-04-18T20:47:45.909Z,14.48
2023-04-18T20:50:18.387Z,9.52
2023-04-18T20:52:48.561Z,7.45
2023-04-18T20:55:19.851Z,12.60
2023-04-18T20:57:50.117Z,14.90
2023-04-18T21:00:23.615Z,12.18
2023-04-18T21:02:53.990Z,11.30
2023-04-18T21:05:24.316Z,8.98
2023-04-18T21:07:54.514Z,6.80
2023-04-18T21:10:25.048Z,7.60
2023-04-18T21:12:55.264Z,6.65
2023-04-18T21:15:28.402Z,7.03
2023-04-18T21:17:59.128Z,7.15
2023-04-18T21:20:29.683Z,6.45
2023-04-18T21:22:59.978Z,7.30
2023-04-18T21:25:30.199Z,6.50
2023-04-18T21:28:00.444Z,7.40
2023-04-18T21:30:33.541Z,6.03
2023-04-18T21:33:03.852Z,5.70
2023-04-18T21:35:34.116Z,6.15
2023-04-18T21:38:04.295Z,7.72
2023-04-18T21:40:34.520Z,6.88
2023-04-18T21:43:04.707Z,7.13
2023-04-18T21:45:37.750Z,10.40
2023-04-18T21:48:08.792Z,8.18
2023-04-18T21:50:39.002Z,15.35
2023-04-18T21:53:09.170Z,11.68
2023-04-18T21:55:39.329Z,13.27
2023-04-18T21:58:09.506Z,12.25
2023-04-18T22:00:42.585Z,8.93
2023-04-18T22:03:13.086Z,6.25
2023-04-18T22:05:43.392Z,6.53
2023-04-18T22:08:15.116Z,5.95
2023-04-18T22:10:45.409Z,5.97
2023-04-18T22:13:16.814Z,6.15
2023-04-18T22:15:50.211Z,5.95
2023-04-18T22:18:22.155Z,5.40
2023-04-18T22:20:53.895Z,5.68
2023-04-18T22:23:24.132Z,5.45
2023-04-18T22:25:54.353Z,5.82
2023-04-18T22:28:24.960Z,5.93
2023-04-18T22:30:58.196Z,5.43
2023-04-18T22:33:28.666Z,5.38
2023-04-18T22:35:58.910Z,6.03
2023-04-18T22:38:32.085Z,6.25
2023-04-18T22:41:02.281Z,6.18
2023-04-18T22:43:32.438Z,6.38
2023-04-18T22:46:05.976Z,6.43
2023-04-18T22:48:36.601Z,6.60
2023-04-18T22:51:07.047Z,6.40
2023-04-18T22:53:37.236Z,6.85
2023-04-18T22:56:07.785Z,6.70
2023-04-18T22:58:37.991Z,6.85
2023-04-18T23:01:10.937Z,6.65
2023-04-18T23:03:41.273Z,6.25
2023-04-18T23:06:11.543Z,6.30
2023-04-18T23:08:41.724Z,6.90
2023-04-18T23:11:11.934Z,6.50
2023-04-18T23:13:42.069Z,5.30
2023-04-18T23:16:14.905Z,6.60
2023-04-18T23:18:45.072Z,6.73
2023-04-18T23:21:15.336Z,7.15
2023-04-18T23:23:45.463Z,7.15
2023-04-18T23:26:16.882Z,7.13
2023-04-18T23:28:47.177Z,7.75
2023-04-18T23:31:20.181Z,8.65
2023-04-18T23:33:50.352Z,8.95
2023-04-18T23:36:20.572Z,8.63
2023-04-18T23:38:50.783Z,8.43
2023-04-18T23:41:21.038Z,8.65
2023-04-18T23:43:51.270Z,8.07
2023-04-18T23:46:24.090Z,8.80
2023-04-18T23:48:54.416Z,8.82
2023-04-18T23:51:24.592Z,8.45
2023-04-18T23:53:54.725Z,8.45
2023-04-18T23:56:24.911Z,8.25
2023-04-18T23:58:55.082Z,9.00
